createdAt,value
2018-07-10T00:01:04.097Z,14.937
2018-07-10T00:02:04.016Z,14.937
2018-07-10T00:03:03.529Z,14.937
2018-07-10T00:04:04.142Z,15
2018-07-10T00:05:03.903Z,15
2018-07-10T00:06:03.953Z,15
2018-07-10T00:07:03.702Z,15
2018-07-10T00:08:04.455Z,14.937
2018-07-10T00:09:04.406Z,14.937
2018-07-10T00:10:03.942Z,14.937
2018-07-10T00:11:03.535Z,14.937
2018-07-10T00:12:04.241Z,14.937
2018-07-10T00:13:03.653Z,14.937
2018-07-10T00:14:04.398Z,15
2018-07-10T00:15:03.940Z,15
2018-07-10T00:16:03.311Z,15
2018-07-10T00:17:03.919Z,15
2018-07-10T00:18:03.960Z,15
2018-07-10T00:19:05.114Z,15
2018-07-10T00:20:04.216Z,15
2018-07-10T00:21:03.550Z,15
2018-07-10T00:22:04.198Z,15
2018-07-10T00:23:03.867Z,15
2018-07-10T00:24:03.711Z,14.937
2018-07-10T00:25:03.575Z,14.937
2018-07-10T00:26:04.242Z,14.937
2018-07-10T00:27:04.014Z,14.937
2018-07-10T00:28:03.519Z,15
2018-07-10T00:29:04.425Z,15
2018-07-10T00:30:03.971Z,14.937
2018-07-10T00:31:03.579Z,14.937
2018-07-10T00:32:04.084Z,14.937
2018-07-10T00:33:04.282Z,14.875
2018-07-10T00:34:03.566Z,14.875
2018-07-10T00:35:04.463Z,14.875
2018-07-10T00:36:03.959Z,14.875
2018-07-10T00:37:04.152Z,14.875
2018-07-10T00:38:03.842Z,14.875
2018-07-10T00:39:03.885Z,14.875
2018-07-10T00:40:03.387Z,14.875
2018-07-10T00:41:04.955Z,14.875
2018-07-10T00:42:03.892Z,14.812
2018-07-10T00:43:03.430Z,14.812
2018-07-10T00:44:03.797Z,14.75
2018-07-10T00:45:03.860Z,14.75
2018-07-10T00:46:03.365Z,14.75
2018-07-10T00:47:04.045Z,14.75
2018-07-10T00:48:03.836Z,14.75
2018-07-10T00:49:03.546Z,14.75
2018-07-10T00:50:03.436Z,14.75
2018-07-10T00:51:04.000Z,14.75
2018-07-10T00:52:04.115Z,14.812
2018-07-10T00:53:03.671Z,14.812
2018-07-10T00:54:03.439Z,14.812
2018-07-10T00:55:04.257Z,14.812
2018-07-10T00:56:03.993Z,14.812
2018-07-10T00:57:03.651Z,14.812
2018-07-10T00:58:03.538Z,14.812
2018-07-10T00:59:03.928Z,14.75
2018-07-10T01:00:03.994Z,14.812
2018-07-10T01:01:03.577Z,14.812
2018-07-10T01:02:04.122Z,14.812
2018-07-10T01:03:03.718Z,14.812
2018-07-10T01:04:03.663Z,14.812
2018-07-10T01:05:03.683Z,14.812
2018-07-10T01:06:04.578Z,14.812
2018-07-10T01:07:04.072Z,14.812
2018-07-10T01:08:03.766Z,14.75
2018-07-10T01:09:03.904Z,14.75
2018-07-10T01:10:03.677Z,14.687
2018-07-10T01:11:04.349Z,14.625
2018-07-10T01:12:04.319Z,14.625
2018-07-10T01:13:04.094Z,14.625
2018-07-10T01:14:03.745Z,14.625
2018-07-10T01:15:03.540Z,14.562
2018-07-10T01:16:04.549Z,14.562
2018-07-10T01:17:04.462Z,14.5
2018-07-10T01:18:03.703Z,14.5
2018-07-10T01:19:03.654Z,14.5
2018-07-10T01:20:05.498Z,14.5
2018-07-10T01:21:03.964Z,14.437
2018-07-10T01:22:04.718Z,14.437
2018-07-10T01:23:03.796Z,14.375
2018-07-10T01:24:03.540Z,14.375
2018-07-10T01:25:04.003Z,14.375
2018-07-10T01:26:03.516Z,14.375
2018-07-10T01:27:04.507Z,14.312
2018-07-10T01:28:04.175Z,14.25
2018-07-10T01:29:03.976Z,14.25
2018-07-10T01:30:03.598Z,14.187
2018-07-10T01:31:03.387Z,14.125
2018-07-10T01:32:04.076Z,14.125
2018-07-10T01:33:03.631Z,14.125
2018-07-10T01:34:04.260Z,14.187
2018-07-10T01:35:04.167Z,14.187
2018-07-10T01:36:03.653Z,14.125
2018-07-10T01:37:03.941Z,14.125
2018-07-10T01:38:03.786Z,14.125
2018-07-10T01:39:04.992Z,14.125
2018-07-10T01:40:03.806Z,14.062
2018-07-10T01:41:04.197Z,14
2018-07-10T01:42:03.980Z,13.937
2018-07-10T01:43:03.604Z,13.937
2018-07-10T01:44:04.259Z,13.937
2018-07-10T01:45:03.840Z,14
2018-07-10T01:46:03.657Z,13.937
2018-07-10T01:47:03.436Z,13.875
2018-07-10T01:48:04.190Z,13.875
2018-07-10T01:49:03.827Z,13.875
2018-07-10T01:50:03.540Z,13.812
2018-07-10T01:51:04.092Z,13.812
2018-07-10T01:52:03.321Z,13.75
2018-07-10T01:53:04.101Z,13.687
2018-07-10T01:54:03.834Z,13.625
2018-07-10T01:55:03.764Z,13.562
2018-07-10T01:56:03.609Z,13.437
2018-07-10T01:57:03.956Z,13.437
2018-07-10T01:58:03.475Z,13.437
2018-07-10T01:59:04.308Z,13.437
2018-07-10T02:00:04.006Z,13.375
2018-07-10T02:01:03.844Z,13.312
2018-07-10T02:02:03.481Z,13.312
2018-07-10T02:03:04.183Z,13.187
2018-07-10T02:04:03.809Z,13.125
2018-07-10T02:05:04.553Z,13.062
2018-07-10T02:06:04.030Z,13.062
2018-07-10T02:07:03.856Z,13
2018-07-10T02:08:03.482Z,13
2018-07-10T02:09:04.013Z,13
2018-07-10T02:10:03.642Z,13
2018-07-10T02:11:04.184Z,13
2018-07-10T02:12:03.823Z,13
2018-07-10T02:13:03.404Z,13
2018-07-10T02:14:04.131Z,13.062
2018-07-10T02:15:03.794Z,13.187
2018-07-10T02:16:03.389Z,13.25
2018-07-10T02:17:04.057Z,13.375
2018-07-10T02:18:03.650Z,13.437
2018-07-10T02:19:03.584Z,13.5
2018-07-10T02:20:04.164Z,13.562
2018-07-10T02:21:03.695Z,13.562
2018-07-10T02:22:04.185Z,13.625
2018-07-10T02:23:03.853Z,13.687
2018-07-10T02:24:03.914Z,13.75
2018-07-10T02:25:03.457Z,13.75
2018-07-10T02:26:04.181Z,13.75
2018-07-10T02:27:03.937Z,13.75
2018-07-10T02:28:04.458Z,13.687
2018-07-10T02:29:04.084Z,13.687
2018-07-10T02:30:04.021Z,13.687
2018-07-10T02:31:03.826Z,13.625
2018-07-10T02:32:03.586Z,13.625
2018-07-10T02:33:03.917Z,13.625
2018-07-10T02:34:03.562Z,13.625
2018-07-10T02:35:04.368Z,13.562
2018-07-10T02:36:03.706Z,13.562
2018-07-10T02:37:03.402Z,13.562
2018-07-10T02:38:03.571Z,13.562
2018-07-10T02:39:04.073Z,13.562
2018-07-10T02:40:03.903Z,13.562
2018-07-10T02:41:03.715Z,13.625
2018-07-10T02:42:05.181Z,13.625
2018-07-10T02:43:03.901Z,13.687
2018-07-10T02:44:03.587Z,13.687
2018-07-10T02:45:03.786Z,13.75
2018-07-10T02:46:03.948Z,13.75
2018-07-10T02:47:03.343Z,13.812
2018-07-10T02:48:03.468Z,13.812
2018-07-10T02:49:04.377Z,13.812
2018-07-10T02:50:03.525Z,13.812
2018-07-10T02:51:04.182Z,13.812
2018-07-10T02:52:03.807Z,13.812
2018-07-10T02:53:03.366Z,13.75
2018-07-10T02:54:03.828Z,13.75
2018-07-10T02:55:03.410Z,13.75
2018-07-10T02:56:03.374Z,13.75
2018-07-10T02:57:03.692Z,13.75
2018-07-10T02:58:03.487Z,13.75
2018-07-10T02:59:03.925Z,13.75
2018-07-10T03:00:04.649Z,13.75
2018-07-10T03:01:04.375Z,13.75
2018-07-10T03:02:04.088Z,13.75
2018-07-10T03:03:04.132Z,13.687
2018-07-10T03:04:04.013Z,13.687
2018-07-10T03:05:04.122Z,13.687
2018-07-10T03:06:03.578Z,13.687
2018-07-10T03:07:04.093Z,13.687
2018-07-10T03:08:04.355Z,13.75
2018-07-10T03:09:04.014Z,13.75
2018-07-10T03:10:03.671Z,13.687
2018-07-10T03:11:03.518Z,13.687
2018-07-10T03:12:04.214Z,13.625
2018-07-10T03:13:03.908Z,13.562
2018-07-10T03:14:03.509Z,13.5
2018-07-10T03:15:04.498Z,13.562
2018-07-10T03:16:03.741Z,13.562
2018-07-10T03:17:04.545Z,13.625
2018-07-10T03:18:03.847Z,13.625
2018-07-10T03:19:03.614Z,13.625
2018-07-10T03:20:04.369Z,13.625
2018-07-10T03:21:03.881Z,13.625
2018-07-10T03:22:03.491Z,13.625
2018-07-10T03:23:04.151Z,13.562
2018-07-10T03:24:03.825Z,13.562
2018-07-10T03:25:03.403Z,13.562
2018-07-10T03:26:04.249Z,13.5
2018-07-10T03:27:04.947Z,13.5
2018-07-10T03:28:03.695Z,13.437
2018-07-10T03:29:03.692Z,13.437
2018-07-10T03:30:03.422Z,13.375
2018-07-10T03:31:03.799Z,13.312
2018-07-10T03:32:03.595Z,13.312
2018-07-10T03:33:04.083Z,13.25
2018-07-10T03:34:03.564Z,13.25
2018-07-10T03:35:04.058Z,13.25
2018-07-10T03:36:03.752Z,13.25
2018-07-10T03:37:03.439Z,13.25
2018-07-10T03:38:04.141Z,13.312
2018-07-10T03:39:04.222Z,13.25
2018-07-10T03:40:04.543Z,13.25
2018-07-10T03:41:04.260Z,13.312
2018-07-10T03:42:04.014Z,13.312
2018-07-10T03:43:04.185Z,13.312
2018-07-10T03:44:03.817Z,13.312
2018-07-10T03:45:03.943Z,13.375
2018-07-10T03:46:04.153Z,13.375
2018-07-10T03:47:03.731Z,13.375
2018-07-10T03:48:03.302Z,13.375
2018-07-10T03:49:04.398Z,13.437
2018-07-10T03:50:03.880Z,13.437
2018-07-10T03:51:03.552Z,13.437
2018-07-10T03:52:04.361Z,13.437
2018-07-10T03:53:03.972Z,13.5
2018-07-10T03:54:03.650Z,13.562
2018-07-10T03:55:04.089Z,13.625
2018-07-10T03:56:03.790Z,13.625
2018-07-10T03:57:03.370Z,13.625
2018-07-10T03:58:04.047Z,13.625
2018-07-10T03:59:03.840Z,13.625
2018-07-10T04:00:03.639Z,13.687
2018-07-10T04:01:03.530Z,13.687
2018-07-10T04:02:04.085Z,13.687
2018-07-10T04:03:03.851Z,13.687
2018-07-10T04:04:03.453Z,13.687
2018-07-10T04:05:03.840Z,13.687
2018-07-10T04:06:03.551Z,13.75
2018-07-10T04:07:04.266Z,13.75
2018-07-10T04:08:03.701Z,13.75
2018-07-10T04:09:04.555Z,13.812
2018-07-10T04:10:10.818Z,13.812
2018-07-10T04:11:03.913Z,13.812
2018-07-10T04:12:03.567Z,13.812
2018-07-10T04:13:04.417Z,13.875
2018-07-10T04:14:04.203Z,13.875
2018-07-10T04:15:03.534Z,13.937
2018-07-10T04:16:03.279Z,13.937
2018-07-10T04:17:04.238Z,13.937
2018-07-10T04:18:03.502Z,13.937
2018-07-10T04:19:04.334Z,14
2018-07-10T04:20:03.679Z,14
2018-07-10T04:21:03.429Z,14
2018-07-10T04:22:04.184Z,14
2018-07-10T04:23:04.193Z,14
2018-07-10T04:24:03.986Z,14
2018-07-10T04:25:04.515Z,14.062
2018-07-10T04:26:03.443Z,14.062
2018-07-10T04:27:04.303Z,14.062
2018-07-10T04:28:03.598Z,14.062
2018-07-10T04:29:03.532Z,14
2018-07-10T04:30:04.295Z,14
2018-07-10T04:31:04.090Z,14
2018-07-10T04:32:04.200Z,14
2018-07-10T04:33:03.631Z,14
2018-07-10T04:34:04.231Z,14.062
2018-07-10T04:35:04.460Z,14.062
2018-07-10T04:36:03.918Z,14.062
2018-07-10T04:37:03.648Z,14.062
2018-07-10T04:38:03.537Z,14.062
2018-07-10T04:39:03.650Z,14.062
2018-07-10T04:40:05.067Z,14.062
2018-07-10T04:41:03.550Z,14.062
2018-07-10T04:42:04.218Z,14.062
2018-07-10T04:43:03.865Z,14.062
2018-07-10T04:44:03.756Z,14.062
2018-07-10T04:45:04.474Z,14.125
2018-07-10T04:46:04.052Z,14.062
2018-07-10T04:47:03.916Z,14.062
2018-07-10T04:48:04.280Z,14.062
2018-07-10T04:49:04.563Z,14.062
2018-07-10T04:50:04.311Z,14.062
2018-07-10T04:51:03.938Z,14.125
2018-07-10T04:52:03.607Z,14.125
2018-07-10T04:53:04.269Z,14.125
2018-07-10T04:54:04.267Z,14.187
2018-07-10T04:55:03.972Z,14.187
2018-07-10T04:56:03.683Z,14.187
2018-07-10T04:57:04.097Z,14.187
2018-07-10T04:58:03.869Z,14.25
2018-07-10T04:59:03.583Z,14.25
2018-07-10T05:00:04.573Z,14.25
2018-07-10T05:01:03.428Z,14.25
2018-07-10T05:02:04.157Z,14.25
2018-07-10T05:03:03.943Z,14.312
2018-07-10T05:04:03.692Z,14.312
2018-07-10T05:05:04.369Z,14.312
2018-07-10T05:06:03.844Z,14.312
2018-07-10T05:07:03.687Z,14.25
2018-07-10T05:08:04.824Z,14.312
2018-07-10T05:09:04.617Z,14.312
2018-07-10T05:10:03.722Z,14.375
2018-07-10T05:11:03.379Z,14.437
2018-07-10T05:12:04.363Z,14.5
2018-07-10T05:13:04.150Z,14.562
2018-07-10T05:14:03.909Z,14.625
2018-07-10T05:15:03.717Z,14.687
2018-07-10T05:16:04.350Z,14.812
2018-07-10T05:17:04.345Z,14.875
2018-07-10T05:18:04.291Z,14.937
2018-07-10T05:19:03.837Z,15
2018-07-10T05:20:03.566Z,15.062
2018-07-10T05:21:04.240Z,15.125
2018-07-10T05:22:04.083Z,15.187
2018-07-10T05:23:03.956Z,15.312
2018-07-10T05:24:03.940Z,15.312
2018-07-10T05:25:03.548Z,15.312
2018-07-10T05:26:04.269Z,15.312
2018-07-10T05:27:03.895Z,15.312
2018-07-10T05:28:04.138Z,15.25
2018-07-10T05:29:03.664Z,15.125
2018-07-10T05:30:03.818Z,15.062
2018-07-10T05:31:04.339Z,15
2018-07-10T05:32:03.795Z,14.937
2018-07-10T05:33:04.334Z,14.875
2018-07-10T05:34:03.963Z,14.812
2018-07-10T05:35:04.080Z,14.75
2018-07-10T05:36:03.990Z,14.687
2018-07-10T05:37:03.900Z,14.687
2018-07-10T05:38:03.843Z,14.625
2018-07-10T05:39:03.893Z,14.625
2018-07-10T05:40:03.576Z,14.625
2018-07-10T05:41:04.464Z,14.562
2018-07-10T05:42:04.063Z,14.562
2018-07-10T05:43:03.721Z,14.562
2018-07-10T05:44:03.463Z,14.625
2018-07-10T05:45:03.832Z,14.625
2018-07-10T05:46:03.460Z,14.687
2018-07-10T05:47:04.188Z,14.625
2018-07-10T05:48:03.737Z,14.625
2018-07-10T05:49:03.594Z,14.625
2018-07-10T05:50:04.465Z,14.625
2018-07-10T05:51:04.009Z,14.625
2018-07-10T05:52:04.236Z,14.625
2018-07-10T05:53:04.180Z,14.687
2018-07-10T05:54:03.621Z,14.75
2018-07-10T05:55:04.330Z,14.687
2018-07-10T05:56:04.135Z,14.687
2018-07-10T05:57:03.979Z,14.75
2018-07-10T05:58:03.816Z,14.75
2018-07-10T05:59:03.517Z,14.75
2018-07-10T06:00:04.514Z,14.75
2018-07-10T06:01:04.280Z,14.687
2018-07-10T06:02:03.524Z,14.687
2018-07-10T06:03:03.643Z,14.687
2018-07-10T06:04:04.337Z,14.562
2018-07-10T06:05:04.171Z,14.562
2018-07-10T06:06:04.321Z,14.562
2018-07-10T06:07:04.259Z,14.5
2018-07-10T06:08:03.953Z,14.5
2018-07-10T06:09:04.095Z,14.5
2018-07-10T06:10:03.871Z,14.437
2018-07-10T06:11:03.480Z,14.437
2018-07-10T06:12:05.305Z,14.5
2018-07-10T06:13:04.147Z,14.437
2018-07-10T06:14:03.858Z,14.5
2018-07-10T06:15:04.110Z,14.562
2018-07-10T06:16:03.589Z,14.625
2018-07-10T06:17:04.465Z,14.687
2018-07-10T06:18:04.005Z,14.75
2018-07-10T06:19:03.756Z,14.812
2018-07-10T06:20:03.874Z,14.875
2018-07-10T06:21:04.413Z,14.875
2018-07-10T06:22:03.900Z,14.875
2018-07-10T06:23:03.822Z,14.875
2018-07-10T06:24:03.801Z,14.937
2018-07-10T06:25:04.305Z,14.937
2018-07-10T06:26:04.097Z,15
2018-07-10T06:27:05.490Z,15.125
2018-07-10T06:28:04.041Z,15.187
2018-07-10T06:29:03.816Z,15.25
2018-07-10T06:30:03.828Z,15.312
2018-07-10T06:31:03.610Z,15.687
2018-07-10T06:32:03.531Z,16.25
2018-07-10T06:33:04.450Z,16.937
2018-07-10T06:34:04.147Z,17.812
2018-07-10T06:35:03.816Z,18.625
2018-07-10T06:36:03.692Z,19.312
2018-07-10T06:37:03.287Z,19.812
2018-07-10T06:38:03.924Z,20.312
2018-07-10T06:39:04.193Z,20.937
2018-07-10T06:40:04.244Z,21.187
2018-07-10T06:41:04.000Z,21.625
2018-07-10T06:42:03.599Z,21.875
2018-07-10T06:43:09.357Z,21.812
2018-07-10T06:44:03.500Z,21.812
2018-07-10T06:45:04.204Z,21.75
2018-07-10T06:46:03.463Z,21.375
2018-07-10T06:47:04.176Z,21.312
2018-07-10T06:48:03.804Z,21.062
2018-07-10T06:49:03.408Z,20.937
2018-07-10T06:50:04.033Z,21
2018-07-10T06:51:03.830Z,21.062
2018-07-10T06:52:03.666Z,21.25
2018-07-10T06:53:03.781Z,21.5
2018-07-10T06:54:04.718Z,22.062
2018-07-10T06:55:03.411Z,22.625
2018-07-10T06:56:03.516Z,22.812
2018-07-10T06:57:04.423Z,23.187
2018-07-10T06:58:03.661Z,23.437
2018-07-10T06:59:03.272Z,23.312
2018-07-10T07:00:03.936Z,23.5
2018-07-10T07:01:04.110Z,23.375
2018-07-10T07:02:03.458Z,23.312
2018-07-10T07:03:04.208Z,23.687
2018-07-10T07:04:03.951Z,23.812
2018-07-10T07:05:03.554Z,23.812
2018-07-10T07:06:04.095Z,24
2018-07-10T07:07:04.073Z,24.25
2018-07-10T07:08:03.924Z,24.375
2018-07-10T07:09:04.097Z,24.437
2018-07-10T07:10:03.717Z,24.437
2018-07-10T07:11:04.185Z,24.437
2018-07-10T07:12:04.047Z,24.5
2018-07-10T07:13:04.085Z,24.562
2018-07-10T07:14:03.721Z,24.625
2018-07-10T07:15:03.417Z,24.5
2018-07-10T07:16:04.107Z,24.437
2018-07-10T07:17:03.972Z,24.625
2018-07-10T07:18:03.866Z,24.687
2018-07-10T07:19:03.891Z,24.562
2018-07-10T07:20:03.578Z,24.937
2018-07-10T07:21:03.350Z,25.437
2018-07-10T07:22:03.371Z,25.625
2018-07-10T07:23:04.212Z,26
2018-07-10T07:24:04.032Z,26.312
2018-07-10T07:25:04.114Z,26.437
2018-07-10T07:26:03.557Z,26.312
2018-07-10T07:27:04.079Z,26.312
2018-07-10T07:28:04.130Z,25.687
2018-07-10T07:29:03.920Z,25.5
2018-07-10T07:30:03.613Z,25.937
2018-07-10T07:31:03.658Z,25.812
2018-07-10T07:32:04.233Z,25.812
2018-07-10T07:33:04.712Z,25.625
2018-07-10T07:34:04.195Z,25.625
2018-07-10T07:35:04.311Z,25.562
2018-07-10T07:36:03.929Z,25.312
2018-07-10T07:37:03.665Z,24.812
2018-07-10T07:38:05.398Z,24.625
2018-07-10T07:39:04.083Z,24.812
2018-07-10T07:40:03.586Z,24.812
2018-07-10T07:41:04.411Z,24.687
2018-07-10T07:42:03.608Z,24.562
2018-07-10T07:43:04.300Z,24.5
2018-07-10T07:44:04.065Z,24.375
2018-07-10T07:45:04.869Z,24.125
2018-07-10T07:46:04.437Z,23.375
2018-07-10T07:47:03.880Z,22.75
2018-07-10T07:48:03.244Z,22.312
2018-07-10T07:49:03.771Z,22.125
2018-07-10T07:50:03.697Z,21.937
2018-07-10T07:51:04.993Z,21.625
2018-07-10T07:52:03.365Z,21.437
2018-07-10T07:53:04.143Z,21.25
2018-07-10T07:54:03.910Z,21.437
2018-07-10T07:55:04.232Z,21.375
2018-07-10T07:56:03.860Z,21.312
2018-07-10T07:57:03.769Z,21.125
2018-07-10T07:58:03.555Z,20.937
2018-07-10T07:59:03.858Z,21
2018-07-10T08:00:03.811Z,21.062
2018-07-10T08:01:03.564Z,21.062
2018-07-10T08:02:04.082Z,21.25
2018-07-10T08:03:03.830Z,21.312
2018-07-10T08:04:03.427Z,21.312
2018-07-10T08:05:04.360Z,21.375
2018-07-10T08:06:03.956Z,21.562
2018-07-10T08:07:03.577Z,21.812
2018-07-10T08:08:04.069Z,22.125
2018-07-10T08:09:04.470Z,22.187
2018-07-10T08:10:04.132Z,22.187
2018-07-10T08:11:04.140Z,22.437
2018-07-10T08:12:03.814Z,22.375
2018-07-10T08:13:03.726Z,22.625
2018-07-10T08:14:04.012Z,22.75
2018-07-10T08:15:03.634Z,22.812
2018-07-10T08:16:04.256Z,22.937
2018-07-10T08:17:03.863Z,22.812
2018-07-10T08:18:03.877Z,22.687
2018-07-10T08:19:04.562Z,22.562
2018-07-10T08:20:03.917Z,22.437
2018-07-10T08:21:04.042Z,22.375
2018-07-10T08:22:03.623Z,22.312
2018-07-10T08:23:04.415Z,22.312
2018-07-10T08:24:03.961Z,22.312
2018-07-10T08:25:03.463Z,22.25
2018-07-10T08:28:03.874Z,21.875
2018-07-10T08:29:04.305Z,21.812
2018-07-10T08:30:04.330Z,21.437
2018-07-10T08:31:03.579Z,21.125
2018-07-10T08:32:04.205Z,20.75
2018-07-10T08:33:03.807Z,20.562
2018-07-10T08:34:04.309Z,20.437
2018-07-10T08:35:04.254Z,20.437
2018-07-10T08:36:03.748Z,20.5
2018-07-10T08:37:03.473Z,20.562
2018-07-10T08:38:04.187Z,20.562
2018-07-10T08:39:04.489Z,20.562
2018-07-10T08:40:04.014Z,20.562
2018-07-10T08:41:03.918Z,20.5
2018-07-10T08:42:04.216Z,20.5
2018-07-10T08:43:03.861Z,20.5
2018-07-10T08:44:03.683Z,20.5
2018-07-10T08:45:03.603Z,20.5
2018-07-10T08:46:04.263Z,20.5
2018-07-10T08:47:04.407Z,20.625
2018-07-10T08:48:04.247Z,20.75
2018-07-10T08:49:03.813Z,20.875
2018-07-10T08:50:04.124Z,21.062
2018-07-10T08:51:03.741Z,21.187
2018-07-10T08:52:04.364Z,21.25
2018-07-10T08:53:05.312Z,21.187
2018-07-10T08:54:03.865Z,21.062
2018-07-10T08:55:04.374Z,21.187
2018-07-10T08:56:04.184Z,21.187
2018-07-10T08:57:03.852Z,21.312
2018-07-10T08:58:03.547Z,21.437
2018-07-10T09:00:03.855Z,21.812
2018-07-10T09:01:03.430Z,22.062
2018-07-10T09:02:04.049Z,22.312
2018-07-10T09:03:03.854Z,22.375
2018-07-10T09:04:04.202Z,22.5
2018-07-10T09:05:03.849Z,22.625
2018-07-10T09:06:03.468Z,22.687
2018-07-10T09:07:03.947Z,22.5
2018-07-10T09:08:03.716Z,22.187
2018-07-10T09:09:04.335Z,22
2018-07-10T09:10:03.898Z,21.875
2018-07-10T09:11:04.217Z,21.562
2018-07-10T09:12:03.748Z,21.5
2018-07-10T09:13:03.265Z,21.375
2018-07-10T09:14:04.515Z,21.25
2018-07-10T09:15:04.219Z,21.125
2018-07-10T09:16:04.496Z,21
2018-07-10T09:17:04.303Z,20.875
2018-07-10T09:18:04.309Z,20.937
2018-07-10T09:19:04.426Z,21.062
2018-07-10T09:20:03.983Z,21.25
2018-07-10T09:21:04.314Z,21.437
2018-07-10T09:22:03.561Z,21.625
2018-07-10T09:23:04.377Z,21.625
2018-07-10T09:24:04.028Z,21.625
2018-07-10T09:25:03.846Z,21.75
2018-07-10T09:26:04.311Z,21.875
2018-07-10T09:27:03.779Z,22.062
2018-07-10T09:28:03.999Z,22.375
2018-07-10T09:29:04.484Z,22.5
2018-07-10T09:30:04.318Z,22.437
2018-07-10T09:31:03.881Z,22.562
2018-07-10T09:32:03.876Z,22.812
2018-07-10T09:33:04.292Z,22.937
2018-07-10T09:34:04.302Z,22.937
2018-07-10T09:35:03.706Z,22.687
2018-07-10T09:36:04.314Z,22.625
2018-07-10T09:37:04.034Z,22.562
2018-07-10T09:38:03.726Z,22.875
2018-07-10T09:39:04.866Z,23.375
2018-07-10T09:40:03.437Z,23.687
2018-07-10T09:41:04.251Z,23.75
2018-07-10T09:42:03.909Z,23.75
2018-07-10T09:43:03.663Z,23.687
2018-07-10T09:44:03.958Z,23.375
2018-07-10T09:45:03.965Z,23.125
2018-07-10T09:46:04.241Z,22.875
2018-07-10T09:47:04.039Z,22.687
2018-07-10T09:48:03.615Z,22.625
2018-07-10T09:49:03.232Z,22.562
2018-07-10T09:50:04.225Z,22.562
2018-07-10T09:51:03.860Z,22.687
2018-07-10T09:52:04.204Z,22.625
2018-07-10T09:53:03.838Z,22.625
2018-07-10T09:54:03.694Z,22.687
2018-07-10T09:55:03.655Z,22.812
2018-07-10T09:56:03.593Z,22.937
2018-07-10T09:57:04.378Z,23
2018-07-10T09:58:03.951Z,23.062
2018-07-10T09:59:03.547Z,23.25
2018-07-10T10:00:04.335Z,23.375
2018-07-10T10:01:04.947Z,23.625
2018-07-10T10:02:03.537Z,23.812
2018-07-10T10:03:04.176Z,24.062
2018-07-10T10:04:03.957Z,24.062
2018-07-10T10:05:03.772Z,23.937
2018-07-10T10:06:03.468Z,23.937
2018-07-10T10:07:04.034Z,23.875
2018-07-10T10:08:04.316Z,23.937
2018-07-10T10:09:04.338Z,24.062
2018-07-10T10:10:03.695Z,24.062
2018-07-10T10:11:03.465Z,24.062
2018-07-10T10:12:04.060Z,24.062
2018-07-10T10:13:03.682Z,24.125
2018-07-10T10:14:03.559Z,24.062
2018-07-10T10:15:04.304Z,23.875
2018-07-10T10:16:03.756Z,23.937
2018-07-10T10:17:03.842Z,23.875
2018-07-10T10:18:04.286Z,23.937
2018-07-10T10:19:03.490Z,23.875
2018-07-10T10:20:03.950Z,23.875
2018-07-10T10:21:03.629Z,24
2018-07-10T10:22:04.265Z,24.125
2018-07-10T10:23:03.578Z,24.375
2018-07-10T10:24:04.245Z,24.437
2018-07-10T10:25:03.547Z,24.25
2018-07-10T10:26:04.134Z,24.25
2018-07-10T10:27:03.705Z,24.187
2018-07-10T10:28:03.603Z,24.187
2018-07-10T10:29:03.682Z,24.062
2018-07-10T10:30:04.246Z,24
2018-07-10T10:31:03.965Z,24.062
2018-07-10T10:32:03.521Z,24.125
2018-07-10T10:33:03.844Z,24.125
2018-07-10T10:34:04.097Z,24.125
2018-07-10T10:35:03.817Z,24
2018-07-10T10:36:03.369Z,23.937
2018-07-10T10:37:04.129Z,23.937
2018-07-10T10:38:03.698Z,23.875
2018-07-10T10:39:03.803Z,23.812
2018-07-10T10:40:03.321Z,23.625
2018-07-10T10:41:03.983Z,23.5
2018-07-10T10:42:03.689Z,23.312
2018-07-10T10:43:04.462Z,23.062
2018-07-10T10:44:04.223Z,22.812
2018-07-10T10:45:03.623Z,22.875
2018-07-10T10:46:03.524Z,23
2018-07-10T10:47:04.045Z,23.187
2018-07-10T10:48:03.754Z,23.375
2018-07-10T10:49:04.363Z,23.312
2018-07-10T10:50:03.934Z,23.25
2018-07-10T10:51:03.746Z,23.125
2018-07-10T10:52:03.342Z,23.062
2018-07-10T10:53:03.964Z,23
2018-07-10T10:54:04.124Z,23
2018-07-10T10:55:03.773Z,23
2018-07-10T10:56:04.296Z,23
2018-07-10T10:57:03.584Z,22.875
2018-07-10T10:58:04.413Z,22.812
2018-07-10T10:59:03.755Z,22.812
2018-07-10T11:00:03.654Z,22.937
2018-07-10T11:01:03.843Z,23.125
2018-07-10T11:02:03.398Z,23.25
2018-07-10T11:03:04.370Z,23.125
2018-07-10T11:04:04.047Z,23.125
2018-07-10T11:05:03.833Z,23.125
2018-07-10T11:06:03.530Z,22.812
2018-07-10T11:07:04.075Z,22.562
2018-07-10T11:08:03.843Z,22.312
2018-07-10T11:09:03.780Z,22.187
2018-07-10T11:10:03.648Z,22.125
2018-07-10T11:11:04.257Z,22.187
2018-07-10T11:13:04.195Z,22.5
2018-07-10T11:14:03.606Z,22.75
2018-07-10T11:15:04.078Z,22.75
2018-07-10T11:16:03.648Z,22.75
2018-07-10T11:17:04.294Z,22.937
2018-07-10T11:18:03.840Z,23.25
2018-07-10T11:19:03.536Z,23.312
2018-07-10T11:20:04.496Z,23.562
2018-07-10T11:21:04.266Z,23.875
2018-07-10T11:22:03.793Z,24.25
2018-07-10T11:23:03.455Z,24.625
2018-07-10T11:24:03.768Z,24.625
2018-07-10T11:25:03.920Z,24.375
2018-07-10T11:26:03.589Z,24.125
2018-07-10T11:27:04.184Z,23.937
2018-07-10T11:28:03.846Z,24
2018-07-10T11:29:04.384Z,24.062
2018-07-10T11:30:04.235Z,23.875
2018-07-10T11:31:03.898Z,23.687
2018-07-10T11:32:03.625Z,23.625
2018-07-10T11:33:03.479Z,23.625
2018-07-10T11:34:03.940Z,23.562
2018-07-10T11:35:03.984Z,23.687
2018-07-10T11:36:03.756Z,23.687
2018-07-10T11:37:04.382Z,23.812
2018-07-10T11:38:03.920Z,24
2018-07-10T11:39:04.017Z,24.062
2018-07-10T11:40:03.904Z,24.125
2018-07-10T11:41:03.499Z,24.062
2018-07-10T11:42:03.650Z,24
2018-07-10T11:43:04.235Z,24
2018-07-10T11:44:03.888Z,24.312
2018-07-10T11:45:03.462Z,24.562
2018-07-10T11:46:04.076Z,24.937
2018-07-10T11:47:03.508Z,25.187
2018-07-10T11:48:04.306Z,25.312
2018-07-10T11:49:04.002Z,25.375
2018-07-10T11:50:03.606Z,25.312
2018-07-10T11:51:03.600Z,25.25
2018-07-10T11:52:04.027Z,25
2018-07-10T11:53:04.808Z,24.937
2018-07-10T11:54:04.143Z,25.062
2018-07-10T11:55:03.664Z,25.062
2018-07-10T11:56:04.043Z,25.062
2018-07-10T11:57:03.649Z,25.312
2018-07-10T11:58:04.367Z,25.437
2018-07-10T11:59:03.620Z,25.562
2018-07-10T12:00:04.023Z,25.812
2018-07-10T12:01:03.923Z,25.437
2018-07-10T12:02:03.820Z,25.062
2018-07-10T12:03:03.890Z,24.75
2018-07-10T12:04:03.650Z,24.312
2018-07-10T12:05:04.213Z,23.75
2018-07-10T12:06:03.973Z,23.375
2018-07-10T12:07:03.620Z,23.062
2018-07-10T12:08:03.773Z,22.937
2018-07-10T12:09:03.585Z,22.937
2018-07-10T12:10:03.446Z,23
2018-07-10T12:11:04.305Z,23
2018-07-10T12:12:04.319Z,23.312
2018-07-10T12:13:04.181Z,23.75
2018-07-10T12:14:03.912Z,23.875
2018-07-10T12:15:03.538Z,24
2018-07-10T12:16:04.158Z,24.062
2018-07-10T12:17:03.990Z,24.375
2018-07-10T12:18:03.789Z,24.437
2018-07-10T12:19:04.223Z,24.5
2018-07-10T12:20:03.813Z,24.437
2018-07-10T12:21:03.423Z,24.5
2018-07-10T12:22:04.113Z,24.25
2018-07-10T12:23:03.404Z,24
2018-07-10T12:24:03.771Z,24
2018-07-10T12:25:03.342Z,24.187
2018-07-10T12:26:04.105Z,24.312
2018-07-10T12:27:04.246Z,24.125
2018-07-10T12:28:04.085Z,23.875
2018-07-10T12:29:03.754Z,23.875
2018-07-10T12:30:03.666Z,23.875
2018-07-10T12:31:04.076Z,23.687
2018-07-10T12:32:03.803Z,23.5
2018-07-10T12:33:03.506Z,23.375
2018-07-10T12:34:04.110Z,23.25
2018-07-10T12:35:03.467Z,23.312
2018-07-10T12:36:04.317Z,23.187
2018-07-10T12:37:03.981Z,23.062
2018-07-10T12:38:04.327Z,22.875
2018-07-10T12:39:04.097Z,22.75
2018-07-10T12:40:03.590Z,22.625
2018-07-10T12:41:04.252Z,22.5
2018-07-10T12:42:04.186Z,22.437
2018-07-10T12:43:03.749Z,22.312
2018-07-10T12:44:03.648Z,22.437
2018-07-10T12:45:03.794Z,22.5
2018-07-10T12:46:05.241Z,22.687